Time;durP1;ratioP1;P1;durP2;ratioP2;P2;SDS_P1;SDS_P2;PMS_P1;PMS_P2;Temp;Humidity;BMP_temperature;BMP_pressure;BME280_temperature;BME280_humidity;BME280_pressure;Samples;Min_cycle;Max_cycle;Signal;HPM_P1;HPM_P2
2021/07/30 00:00:01;;;;;;;9.27;2.70;;;;;;;;;;5057610;28;20458;-71
2021/07/30 00:02:29;;;;;;;10.50;2.70;;;;;;;;;;5057425;28;20497;-71
2021/07/30 00:04:58;;;;;;;4.47;2.50;;;;;;;;;;5057477;28;20579;-71
2021/07/30 00:07:27;;;;;;;4.20;2.60;;;;;;;;;;5057674;28;21040;-72
2021/07/30 00:09:55;;;;;;;11.97;2.60;;;;;;;;;;5057686;28;20434;-72
2021/07/30 00:12:23;;;;;;;4.73;2.53;;;;;;;;;;5057507;28;20471;-72
2021/07/30 00:14:50;;;;;;;5.90;3.13;;;;;;;;;;5057476;28;20475;-72
2021/07/30 00:17:18;;;;;;;9.83;4.20;;;;;;;;;;5057376;28;20832;-72
2021/07/30 00:19:46;;;;;;;4.07;2.60;;;;;;;;;;5057200;28;20457;-71
2021/07/30 00:22:16;;;;;;;4.63;2.87;;;;;;;;;;5056121;28;20461;-72
2021/07/30 00:24:43;;;;;;;9.20;2.57;;;;;;;;;;5057116;28;20492;-72
2021/07/30 00:27:11;;;;;;;8.60;2.27;;;;;;;;;;5057011;28;20510;-71
2021/07/30 00:29:39;;;;;;;8.27;2.70;;;;;;;;;;5057620;28;20544;-72
2021/07/30 00:32:08;;;;;;;9.53;2.70;;;;;;;;;;5057010;28;20794;-72
2021/07/30 00:34:36;;;;;;;5.73;2.90;;;;;;;;;;5056717;28;20449;-71
2021/07/30 00:37:04;;;;;;;6.70;2.83;;;;;;;;;;5057924;28;20596;-72
2021/07/30 00:39:33;;;;;;;7.30;3.00;;;;;;;;;;5057725;28;20464;-71
2021/07/30 00:42:02;;;;;;;8.73;2.80;;;;;;;;;;5057631;28;20603;-72
2021/07/30 00:44:30;;;;;;;6.00;2.07;;;;;;;;;;5058481;28;20489;-72
2021/07/30 00:46:58;;;;;;;4.40;2.40;;;;;;;;;;5057021;28;20504;-72
2021/07/30 00:49:26;;;;;;;4.17;1.70;;;;;;;;;;5057174;28;20458;-72
2021/07/30 00:51:54;;;;;;;8.00;2.47;;;;;;;;;;5057230;28;20465;-73
2021/07/30 00:54:24;;;;;;;8.03;2.67;;;;;;;;;;5057238;28;20489;-71
2021/07/30 00:56:54;;;;;;;4.60;2.03;;;;;;;;;;5057059;28;20473;-71
2021/07/30 00:59:22;;;;;;;14.60;3.40;;;;;;;;;;5056481;28;20449;-71
2021/07/30 01:01:51;;;;;;;6.20;2.40;;;;;;;;;;5056864;28;20552;-71
2021/07/30 01:04:19;;;;;;;7.73;2.80;;;;;;;;;;5057075;28;20481;-71
2021/07/30 01:06:47;;;;;;;5.73;2.33;;;;;;;;;;5056596;28;20461;-72
2021/07/30 01:09:15;;;;;;;5.10;3.27;;;;;;;;;;5056690;28;20457;-71
2021/07/30 01:11:44;;;;;;;4.70;2.83;;;;;;;;;;5056650;28;20702;-72
2021/07/30 01:14:13;;;;;;;8.17;3.93;;;;;;;;;;5056585;28;20461;-72
2021/07/30 01:16:41;;;;;;;4.10;2.70;;;;;;;;;;5056638;28;20465;-72
2021/07/30 01:19:14;;;;;;;9.53;2.80;;;;;;;;;;5056453;28;20453;-72
2021/07/30 01:21:45;;;;;;;7.90;2.67;;;;;;;;;;5056693;28;20724;-71
2021/07/30 01:24:14;;;;;;;8.33;3.00;;;;;;;;;;5056512;28;20781;-73
2021/07/30 01:26:42;;;;;;;8.70;2.90;;;;;;;;;;5056722;28;20475;-71
2021/07/30 01:29:10;;;;;;;8.43;2.93;;;;;;;;;;5056068;28;20457;-73
2021/07/30 01:31:38;;;;;;;8.63;2.70;;;;;;;;;;5056517;28;20465;-72
2021/07/30 01:34:06;;;;;;;5.20;2.80;;;;;;;;;;5057642;28;20879;-72
2021/07/30 01:36:34;;;;;;;6.40;2.37;;;;;;;;;;5060176;28;20544;-72
2021/07/30 01:39:02;;;;;;;6.57;2.87;;;;;;;;;;5060022;28;20540;-72
2021/07/30 01:41:32;;;;;;;7.80;2.80;;;;;;;;;;5060132;28;20568;-73
2021/07/30 01:44:00;;;;;;;9.63;2.53;;;;;;;;;;5059696;28;20531;-72
2021/07/30 01:46:27;;;;;;;5.77;2.63;;;;;;;;;;5060340;28;20867;-73
2021/07/30 01:48:55;;;;;;;4.20;2.60;;;;;;;;;;5059699;28;20452;-71
2021/07/30 01:51:23;;;;;;;3.93;2.20;;;;;;;;;;5060220;28;20464;-71
2021/07/30 01:53:52;;;;;;;9.10;2.20;;;;;;;;;;5059437;28;20857;-75
2021/07/30 01:56:20;;;;;;;5.67;2.73;;;;;;;;;;5059990;28;20453;-72
2021/07/30 01:58:49;;;;;;;7.57;3.00;;;;;;;;;;5059558;28;20731;-72
2021/07/30 02:01:17;;;;;;;5.90;3.20;;;;;;;;;;5059600;28;20552;-72
2021/07/30 02:03:45;;;;;;;6.60;2.30;;;;;;;;;;5059490;28;20538;-72
2021/07/30 02:06:13;;;;;;;7.33;2.97;;;;;;;;;;5059380;28;20536;-72
2021/07/30 02:08:43;;;;;;;6.20;2.50;;;;;;;;;;5058977;28;20533;-72
2021/07/30 02:11:11;;;;;;;4.93;3.10;;;;;;;;;;5059467;28;20692;-72
2021/07/30 02:16:22;;;;;;;10.43;2.80;;;;;;;;;;5045767;28;20857;-72
2021/07/30 02:18:50;;;;;;;8.80;2.90;;;;;;;;;;5059425;28;20489;-72
2021/07/30 02:21:18;;;;;;;5.07;3.03;;;;;;;;;;5058941;28;20457;-71
2021/07/30 02:23:46;;;;;;;7.83;3.37;;;;;;;;;;5059552;28;20552;-72
2021/07/30 02:26:14;;;;;;;6.23;2.83;;;;;;;;;;5059142;28;20519;-72
2021/07/30 02:28:42;;;;;;;6.53;2.27;;;;;;;;;;5059129;28;20496;-72
2021/07/30 02:31:10;;;;;;;6.40;2.47;;;;;;;;;;5059157;28;20755;-72
2021/07/30 02:33:40;;;;;;;4.23;2.40;;;;;;;;;;5058893;28;20462;-72
2021/07/30 02:36:08;;;;;;;4.20;2.60;;;;;;;;;;5059032;28;20446;-71
2021/07/30 02:38:35;;;;;;;5.50;2.83;;;;;;;;;;5058970;28;20496;-73
2021/07/30 02:41:03;;;;;;;9.33;2.93;;;;;;;;;;5058828;28;20487;-71
2021/07/30 02:43:31;;;;;;;5.37;2.47;;;;;;;;;;5058027;28;20505;-72
2021/07/30 02:45:59;;;;;;;8.33;3.03;;;;;;;;;;5057427;28;20489;-72
2021/07/30 02:48:27;;;;;;;6.93;2.70;;;;;;;;;;5058734;28;20973;-72
2021/07/30 02:50:57;;;;;;;6.83;3.03;;;;;;;;;;5058358;28;20540;-72
2021/07/30 02:53:25;;;;;;;5.70;2.60;;;;;;;;;;5058558;28;20929;-72
2021/07/30 02:55:53;;;;;;;10.70;3.17;;;;;;;;;;5058462;28;20607;-73
2021/07/30 02:58:21;;;;;;;5.30;2.57;;;;;;;;;;5058553;28;20469;-72
2021/07/30 03:00:48;;;;;;;9.73;2.60;;;;;;;;;;5058958;28;20807;-72
2021/07/30 03:03:16;;;;;;;7.40;4.30;;;;;;;;;;5058249;28;20564;-72
2021/07/30 03:05:44;;;;;;;8.90;3.30;;;;;;;;;;5058372;28;20908;-72
2021/07/30 03:08:14;;;;;;;6.80;2.80;;;;;;;;;;5059298;28;20468;-72
2021/07/30 03:10:42;;;;;;;6.57;2.50;;;;;;;;;;5059266;28;20523;-72
2021/07/30 03:13:12;;;;;;;5.13;2.80;;;;;;;;;;5058346;28;20461;-72
2021/07/30 03:15:40;;;;;;;5.83;2.60;;;;;;;;;;5059001;28;20461;-73
2021/07/30 03:18:08;;;;;;;5.20;3.50;;;;;;;;;;5058637;28;20585;-73
2021/07/30 03:20:36;;;;;;;6.13;2.90;;;;;;;;;;5058007;28;20549;-73
2021/07/30 03:23:04;;;;;;;5.50;2.80;;;;;;;;;;5057947;28;20547;-72
2021/07/30 03:25:33;;;;;;;6.43;2.53;;;;;;;;;;5057919;28;20520;-72
2021/07/30 03:28:01;;;;;;;4.87;2.77;;;;;;;;;;5058167;28;20464;-72
2021/07/30 03:30:29;;;;;;;6.10;2.83;;;;;;;;;;5058013;28;20827;-71
2021/07/30 03:32:57;;;;;;;5.83;2.80;;;;;;;;;;5057878;28;20592;-72
2021/07/30 03:35:25;;;;;;;3.73;2.90;;;;;;;;;;5057507;28;20486;-71
2021/07/30 03:37:53;;;;;;;7.10;3.30;;;;;;;;;;5057815;28;20526;-72
2021/07/30 03:40:21;;;;;;;6.03;3.40;;;;;;;;;;5058122;28;20453;-70
2021/07/30 03:42:51;;;;;;;7.77;3.20;;;;;;;;;;5057767;28;20465;-72
2021/07/30 03:45:19;;;;;;;3.57;2.67;;;;;;;;;;5057464;28;20920;-72
2021/07/30 03:47:47;;;;;;;10.17;3.60;;;;;;;;;;5057673;28;20535;-72
2021/07/30 03:50:15;;;;;;;9.77;3.10;;;;;;;;;;5057913;28;20544;-72
2021/07/30 03:52:43;;;;;;;6.00;2.80;;;;;;;;;;5057386;28;20453;-72
2021/07/30 03:55:11;;;;;;;9.00;3.40;;;;;;;;;;5058305;28;20482;-71
2021/07/30 03:57:39;;;;;;;6.97;3.10;;;;;;;;;;5058586;28;20480;-72
2021/07/30 04:00:09;;;;;;;5.10;3.00;;;;;;;;;;5057430;28;20697;-73
2021/07/30 04:02:37;;;;;;;7.57;3.53;;;;;;;;;;5058303;28;20549;-72
2021/07/30 04:05:05;;;;;;;6.00;3.27;;;;;;;;;;5057272;28;20524;-71
2021/07/30 04:07:33;;;;;;;8.50;3.60;;;;;;;;;;5057358;28;20560;-72
2021/07/30 04:10:01;;;;;;;6.90;3.20;;;;;;;;;;5057166;28;20471;-72
2021/07/30 04:12:29;;;;;;;7.07;3.70;;;;;;;;;;5056744;28;20472;-72
2021/07/30 04:14:57;;;;;;;7.77;3.50;;;;;;;;;;5057153;28;20552;-72
2021/07/30 04:17:27;;;;;;;7.37;3.30;;;;;;;;;;5057147;28;20461;-72
2021/07/30 04:19:55;;;;;;;5.43;2.90;;;;;;;;;;5040935;28;20479;-72
2021/07/30 04:22:23;;;;;;;6.30;3.17;;;;;;;;;;5063027;28;20472;-72
2021/07/30 04:24:50;;;;;;;5.70;3.33;;;;;;;;;;5077027;28;20484;-72
2021/07/30 04:27:18;;;;;;;8.90;3.10;;;;;;;;;;5076836;28;20525;-72
2021/07/30 04:29:46;;;;;;;9.63;3.40;;;;;;;;;;5076856;28;20921;-72
2021/07/30 04:32:14;;;;;;;9.50;2.90;;;;;;;;;;5076516;28;20552;-72
2021/07/30 04:34:44;;;;;;;7.60;3.30;;;;;;;;;;5076820;28;20578;-73
2021/07/30 04:37:11;;;;;;;6.90;3.60;;;;;;;;;;5076513;28;20839;-72
2021/07/30 04:39:39;;;;;;;10.03;3.67;;;;;;;;;;5076210;28;20575;-73
2021/07/30 04:42:08;;;;;;;8.20;3.13;;;;;;;;;;5076252;28;20499;-73
2021/07/30 04:44:36;;;;;;;6.33;2.83;;;;;;;;;;5076656;28;20590;-72
2021/07/30 04:47:04;;;;;;;9.27;4.20;;;;;;;;;;5072510;28;20476;-72
2021/07/30 04:49:32;;;;;;;6.87;4.43;;;;;;;;;;5055611;28;20485;-73
2021/07/30 04:52:01;;;;;;;8.70;3.63;;;;;;;;;;5056378;28;20561;-72
2021/07/30 04:54:29;;;;;;;9.37;3.90;;;;;;;;;;5056252;28;20462;-72
2021/07/30 04:56:57;;;;;;;6.27;3.23;;;;;;;;;;5056245;28;20472;-72
2021/07/30 04:59:25;;;;;;;10.07;3.27;;;;;;;;;;5056460;28;20456;-72
2021/07/30 05:01:53;;;;;;;8.30;3.90;;;;;;;;;;5056031;28;20461;-72
2021/07/30 05:04:21;;;;;;;11.03;3.87;;;;;;;;;;5055862;28;20536;-72
2021/07/30 05:06:49;;;;;;;5.77;2.80;;;;;;;;;;5055742;28;21002;-72
2021/07/30 05:09:20;;;;;;;6.90;3.37;;;;;;;;;;5057692;28;20800;-72
2021/07/30 05:11:48;;;;;;;6.87;3.77;;;;;;;;;;5059704;28;20527;-72
2021/07/30 05:14:16;;;;;;;15.50;3.57;;;;;;;;;;5060412;28;20453;-72
2021/07/30 05:16:44;;;;;;;7.07;3.10;;;;;;;;;;5060436;28;20493;-72
2021/07/30 05:19:12;;;;;;;7.30;3.43;;;;;;;;;;5058850;28;20564;-71
2021/07/30 05:21:40;;;;;;;11.40;3.23;;;;;;;;;;5059632;28;20471;-72
2021/07/30 05:24:08;;;;;;;9.23;3.20;;;;;;;;;;5059753;28;20446;-72
2021/07/30 05:26:37;;;;;;;13.13;3.80;;;;;;;;;;5059772;28;20497;-72
2021/07/30 05:29:08;;;;;;;5.73;3.50;;;;;;;;;;5059706;28;20453;-72
2021/07/30 05:31:36;;;;;;;5.00;2.80;;;;;;;;;;5059442;28;20474;-72
2021/07/30 05:34:04;;;;;;;7.77;3.13;;;;;;;;;;5059230;28;20455;-72
2021/07/30 05:36:34;;;;;;;9.57;3.00;;;;;;;;;;5058632;28;20464;-73
2021/07/30 05:39:06;;;;;;;8.67;3.37;;;;;;;;;;5058265;28;20457;-73
2021/07/30 05:41:34;;;;;;;6.37;3.33;;;;;;;;;;5058039;28;20861;-72
2021/07/30 05:44:03;;;;;;;7.83;3.73;;;;;;;;;;5058801;28;20556;-72
2021/07/30 05:46:32;;;;;;;14.53;4.33;;;;;;;;;;5058030;28;21019;-71
2021/07/30 05:49:01;;;;;;;5.70;3.30;;;;;;;;;;5057646;28;20518;-72
2021/07/30 05:51:29;;;;;;;5.77;3.50;;;;;;;;;;5045875;28;20467;-72
2021/07/30 05:53:57;;;;;;;11.23;3.37;;;;;;;;;;5036599;28;20454;-72
2021/07/30 05:56:25;;;;;;;7.47;3.80;;;;;;;;;;5037852;28;20458;-72
2021/07/30 05:58:53;;;;;;;4.23;3.20;;;;;;;;;;5037813;28;21021;-72
2021/07/30 06:01:22;;;;;;;6.10;3.77;;;;;;;;;;5037823;28;20470;-72
2021/07/30 06:03:50;;;;;;;11.93;3.30;;;;;;;;;;5036980;28;20581;-72
2021/07/30 06:06:18;;;;;;;5.30;2.80;;;;;;;;;;5037079;28;20504;-71
2021/07/30 06:08:51;;;;;;;7.23;3.33;;;;;;;;;;5044703;28;20793;-73
2021/07/30 06:11:20;;;;;;;3.70;2.43;;;;;;;;;;5057094;28;20519;-72
2021/07/30 06:13:48;;;;;;;10.93;3.40;;;;;;;;;;5057367;28;20468;-71
2021/07/30 06:16:18;;;;;;;4.17;2.90;;;;;;;;;;5056535;28;20560;-73
2021/07/30 06:18:47;;;;;;;5.20;2.97;;;;;;;;;;5057218;28;20453;-72
2021/07/30 06:21:20;;;;;;;5.57;2.90;;;;;;;;;;5056730;28;20536;-73
2021/07/30 06:23:49;;;;;;;5.60;3.10;;;;;;;;;;5057692;28;20844;-73
2021/07/30 06:26:17;;;;;;;6.27;4.13;;;;;;;;;;5056857;28;20527;-72
2021/07/30 06:28:45;;;;;;;10.63;3.97;;;;;;;;;;5057704;28;20735;-72
2021/07/30 06:31:12;;;;;;;7.47;3.37;;;;;;;;;;5057081;28;20454;-71
2021/07/30 06:33:40;;;;;;;10.27;4.10;;;;;;;;;;5057873;28;20495;-72
2021/07/30 06:36:10;;;;;;;8.07;3.80;;;;;;;;;;5057020;28;20848;-73
2021/07/30 06:38:47;;;;;;;6.07;3.13;;;;;;;;;;5046880;28;20469;-72
2021/07/30 06:41:18;;;;;;;5.30;3.30;;;;;;;;;;5055733;28;20453;-72
2021/07/30 06:43:46;;;;;;;7.90;3.90;;;;;;;;;;5047363;28;20454;-71
2021/07/30 06:46:14;;;;;;;8.10;3.47;;;;;;;;;;5056600;28;20670;-70
2021/07/30 06:48:42;;;;;;;5.43;3.20;;;;;;;;;;5056794;28;20467;-72
2021/07/30 06:51:13;;;;;;;8.00;3.70;;;;;;;;;;5057804;28;20509;-70
2021/07/30 06:53:41;;;;;;;6.70;3.10;;;;;;;;;;5057452;28;20513;-72
2021/07/30 06:56:15;;;;;;;13.80;4.50;;;;;;;;;;5056552;28;20541;-71
2021/07/30 06:58:44;;;;;;;7.03;3.67;;;;;;;;;;5055909;28;20743;-72
2021/07/30 07:01:12;;;;;;;16.10;3.90;;;;;;;;;;5055244;28;20456;-70
2021/07/30 07:03:42;;;;;;;6.77;3.87;;;;;;;;;;5042986;28;20870;-72
2021/07/30 07:06:17;;;;;;;9.67;3.53;;;;;;;;;;5036991;28;20482;-72
2021/07/30 07:08:45;;;;;;;6.17;3.60;;;;;;;;;;5036191;28;20862;-71
2021/07/30 07:11:13;;;;;;;4.80;3.03;;;;;;;;;;5035620;28;20512;-71
2021/07/30 07:13:42;;;;;;;10.23;3.70;;;;;;;;;;5043552;28;20880;-71
2021/07/30 07:16:11;;;;;;;6.30;2.87;;;;;;;;;;5056068;28;20465;-72
2021/07/30 07:18:39;;;;;;;11.90;3.80;;;;;;;;;;5041967;28;20457;-71
2021/07/30 07:21:08;;;;;;;7.27;3.53;;;;;;;;;;5055721;28;20885;-70
2021/07/30 07:23:43;;;;;;;8.43;4.80;;;;;;;;;;5056064;28;20457;-70
2021/07/30 07:26:13;;;;;;;4.53;2.73;;;;;;;;;;5056806;28;20970;-70
2021/07/30 07:28:45;;;;;;;7.50;3.57;;;;;;;;;;5058288;28;20534;-70
2021/07/30 07:31:18;;;;;;;10.33;3.60;;;;;;;;;;5058101;28;20469;-69
2021/07/30 07:33:48;;;;;;;6.13;3.20;;;;;;;;;;5057960;28;20564;-71
2021/07/30 07:36:17;;;;;;;7.60;3.80;;;;;;;;;;5058053;28;20728;-70
2021/07/30 07:38:51;;;;;;;6.93;3.60;;;;;;;;;;5058099;28;20480;-72
2021/07/30 07:41:20;;;;;;;4.93;3.10;;;;;;;;;;5057204;28;20886;-70
2021/07/30 07:43:48;;;;;;;8.40;3.57;;;;;;;;;;5059152;28;20460;-72
2021/07/30 07:46:17;;;;;;;5.63;3.00;;;;;;;;;;5056503;28;20489;-69
2021/07/30 07:48:46;;;;;;;5.47;3.40;;;;;;;;;;5056490;28;20453;-72
2021/07/30 07:51:19;;;;;;;7.90;3.60;;;;;;;;;;5056664;28;20610;-70
2021/07/30 07:53:50;;;;;;;4.57;3.27;;;;;;;;;;5056767;28;20465;-70
2021/07/30 07:56:18;;;;;;;8.33;3.43;;;;;;;;;;5055139;28;20472;-71
2021/07/30 07:58:47;;;;;;;8.50;3.43;;;;;;;;;;5057123;28;20468;-72
2021/07/30 08:01:15;;;;;;;11.43;5.50;;;;;;;;;;5056149;28;20465;-70
2021/07/30 08:03:45;;;;;;;4.07;2.80;;;;;;;;;;5056671;28;20464;-72
2021/07/30 08:06:25;;;;;;;8.07;3.30;;;;;;;;;;5054442;28;20515;-72
2021/07/30 08:08:56;;;;;;;5.20;2.73;;;;;;;;;;5053499;28;20945;-70
2021/07/30 08:11:24;;;;;;;10.13;3.20;;;;;;;;;;5064602;28;20932;-71
2021/07/30 08:13:52;;;;;;;5.20;2.50;;;;;;;;;;5057154;28;20458;-70
2021/07/30 08:16:29;;;;;;;6.87;3.27;;;;;;;;;;5055787;28;21043;-71
2021/07/30 08:19:01;;;;;;;10.13;2.70;;;;;;;;;;5055610;28;20500;-71
2021/07/30 08:21:36;;;;;;;10.53;2.40;;;;;;;;;;5053755;28;20460;-71
2021/07/30 08:24:15;;;;;;;3.67;1.93;;;;;;;;;;5056239;28;20488;-71
2021/07/30 08:26:45;;;;;;;6.27;3.57;;;;;;;;;;5052226;28;20486;-70
2021/07/30 08:29:14;;;;;;;4.80;2.60;;;;;;;;;;5055650;28;20461;-71
2021/07/30 08:31:44;;;;;;;6.90;2.93;;;;;;;;;;5051583;28;21165;-71
2021/07/30 08:34:17;;;;;;;5.53;2.47;;;;;;;;;;5054325;28;20584;-72
2021/07/30 08:36:45;;;;;;;2.80;1.87;;;;;;;;;;5053482;28;20523;-71
2021/07/30 08:39:17;;;;;;;6.30;2.70;;;;;;;;;;5072746;28;20478;-72
2021/07/30 08:41:46;;;;;;;7.00;2.53;;;;;;;;;;5067308;28;21062;-71
2021/07/30 08:44:17;;;;;;;5.63;2.27;;;;;;;;;;5059348;28;20464;-71
2021/07/30 08:46:45;;;;;;;6.67;2.80;;;;;;;;;;5058449;28;20579;-72
2021/07/30 08:49:16;;;;;;;4.23;1.90;;;;;;;;;;5058070;28;20461;-70
2021/07/30 08:51:47;;;;;;;7.67;2.57;;;;;;;;;;5046299;28;21030;-71
2021/07/30 08:54:19;;;;;;;6.70;3.00;;;;;;;;;;5057277;28;20751;-72
2021/07/30 08:56:47;;;;;;;7.60;3.00;;;;;;;;;;5057116;28;20489;-71
2021/07/30 08:59:18;;;;;;;5.97;2.73;;;;;;;;;;5058952;28;20461;-72
2021/07/30 09:01:53;;;;;;;5.83;3.43;;;;;;;;;;5050175;28;20457;-71
2021/07/30 09:04:27;;;;;;;3.10;1.97;;;;;;;;;;5069466;28;20459;-70
2021/07/30 09:06:56;;;;;;;5.27;2.07;;;;;;;;;;5071143;28;20553;-72
2021/07/30 09:09:27;;;;;;;6.47;2.00;;;;;;;;;;5066561;28;20531;-71
2021/07/30 09:12:02;;;;;;;3.60;2.30;;;;;;;;;;5070170;28;20752;-71
2021/07/30 09:14:34;;;;;;;6.67;1.80;;;;;;;;;;5072477;28;20463;-72
2021/07/30 09:17:02;;;;;;;7.00;1.70;;;;;;;;;;5060936;28;20496;-71
2021/07/30 09:19:30;;;;;;;6.17;2.23;;;;;;;;;;5060200;28;20449;-72
2021/07/30 09:22:07;;;;;;;5.23;2.30;;;;;;;;;;5066956;28;20478;-73
2021/07/30 09:24:38;;;;;;;7.03;2.13;;;;;;;;;;5065280;28;20457;-73
2021/07/30 09:27:10;;;;;;;4.23;2.13;;;;;;;;;;5057674;28;20610;-72
2021/07/30 09:29:43;;;;;;;9.40;2.30;;;;;;;;;;5072520;28;20852;-72
2021/07/30 09:32:19;;;;;;;5.30;1.97;;;;;;;;;;5073034;28;20454;-72
2021/07/30 09:34:48;;;;;;;2.40;1.77;;;;;;;;;;5056688;28;20926;-73
2021/07/30 09:37:22;;;;;;;3.47;2.37;;;;;;;;;;5056724;28;20465;-73
2021/07/30 09:39:53;;;;;;;5.00;2.30;;;;;;;;;;5056598;28;20523;-72
2021/07/30 09:42:23;;;;;;;6.63;2.17;;;;;;;;;;5057157;28;21063;-74
2021/07/30 09:44:59;;;;;;;2.47;1.60;;;;;;;;;;5055177;28;20496;-74
2021/07/30 09:47:28;;;;;;;5.93;2.23;;;;;;;;;;5041833;28;20492;-72
2021/07/30 09:52:46;;;;;;;5.23;2.30;;;;;;;;;;5027923;28;20454;-74
2021/07/30 09:55:24;;;;;;;7.07;2.20;;;;;;;;;;5048635;28;20449;-73
2021/07/30 09:57:55;;;;;;;4.30;2.17;;;;;;;;;;5057841;28;20468;-72
2021/07/30 10:00:24;;;;;;;6.63;2.43;;;;;;;;;;5057106;28;20504;-71
2021/07/30 10:02:52;;;;;;;5.70;2.43;;;;;;;;;;5058062;28;20458;-72
2021/07/30 10:05:20;;;;;;;7.10;2.10;;;;;;;;;;5058089;28;20458;-72
2021/07/30 10:07:48;;;;;;;5.77;2.37;;;;;;;;;;5054035;28;20498;-71
2021/07/30 10:10:22;;;;;;;8.10;3.27;;;;;;;;;;5037458;28;20538;-72
2021/07/30 10:12:58;;;;;;;6.10;2.33;;;;;;;;;;5052489;28;20703;-72
2021/07/30 10:15:25;;;;;;;2.93;2.03;;;;;;;;;;5055921;28;20462;-71
2021/07/30 10:17:58;;;;;;;2.90;1.97;;;;;;;;;;5057906;28;20527;-71
2021/07/30 10:20:30;;;;;;;3.50;1.80;;;;;;;;;;5058024;28;20541;-72
2021/07/30 10:23:11;;;;;;;5.77;2.30;;;;;;;;;;5057058;28;20465;-72
2021/07/30 10:25:46;;;;;;;5.07;2.07;;;;;;;;;;5056924;28;20457;-71
2021/07/30 10:28:21;;;;;;;5.13;2.47;;;;;;;;;;5055551;28;20485;-70
2021/07/30 10:30:55;;;;;;;4.23;1.93;;;;;;;;;;5049269;28;20461;-72
2021/07/30 10:33:41;;;;;;;5.07;2.23;;;;;;;;;;5056720;28;20540;-72
2021/07/30 10:36:31;;;;;;;3.93;1.90;;;;;;;;;;5056586;28;20467;-71
2021/07/30 10:39:15;;;;;;;5.57;2.13;;;;;;;;;;5057806;28;20465;-72
2021/07/30 10:42:04;;;;;;;2.93;1.70;;;;;;;;;;5057411;28;20462;-72
2021/07/30 10:45:07;;;;;;;3.23;1.70;;;;;;;;;;5056302;28;20441;-72
2021/07/30 10:47:42;;;;;;;3.50;2.23;;;;;;;;;;5056915;28;20584;-71
2021/07/30 10:50:24;;;;;;;5.77;2.53;;;;;;;;;;5057794;28;20460;-71
2021/07/30 10:52:52;;;;;;;3.93;2.10;;;;;;;;;;5064379;28;20938;-72
2021/07/30 10:55:34;;;;;;;4.07;1.50;;;;;;;;;;5056300;28;20936;-73
2021/07/30 10:58:04;;;;;;;5.17;1.73;;;;;;;;;;5056897;28;20453;-72
2021/07/30 11:00:54;;;;;;;3.60;2.47;;;;;;;;;;5055940;28;20453;-73
2021/07/30 11:03:24;;;;;;;2.63;1.53;;;;;;;;;;5054968;28;20457;-71
2021/07/30 11:06:12;;;;;;;3.90;1.80;;;;;;;;;;5054976;28;20807;-73
2021/07/30 11:08:58;;;;;;;5.73;2.20;;;;;;;;;;5052894;28;20508;-73
2021/07/30 11:11:37;;;;;;;3.60;2.30;;;;;;;;;;5055491;28;20873;-73
2021/07/30 11:14:11;;;;;;;5.97;2.60;;;;;;;;;;5055490;28;20552;-72
2021/07/30 11:16:39;;;;;;;6.70;2.73;;;;;;;;;;5056481;28;20757;-71
2021/07/30 11:19:19;;;;;;;4.40;2.03;;;;;;;;;;5055461;28;20632;-72
2021/07/30 11:21:52;;;;;;;3.70;2.17;;;;;;;;;;5055827;28;20510;-73
2021/07/30 11:24:20;;;;;;;5.37;2.10;;;;;;;;;;5054980;28;20491;-72
2021/07/30 11:26:49;;;;;;;5.37;2.50;;;;;;;;;;5055025;28;20548;-72
2021/07/30 11:29:22;;;;;;;7.80;2.80;;;;;;;;;;5055386;28;20453;-72
2021/07/30 11:32:00;;;;;;;4.47;1.40;;;;;;;;;;5054822;28;20574;-71
2021/07/30 11:34:36;;;;;;;3.30;1.90;;;;;;;;;;5054116;28;20571;-70
2021/07/30 11:37:04;;;;;;;2.67;2.03;;;;;;;;;;5056368;28;20464;-73
2021/07/30 11:39:38;;;;;;;5.67;2.40;;;;;;;;;;5055050;28;20882;-73
2021/07/30 11:42:07;;;;;;;6.93;2.20;;;;;;;;;;5055545;28;20465;-72
2021/07/30 11:44:49;;;;;;;4.63;2.13;;;;;;;;;;5055737;28;20931;-73
2021/07/30 11:47:18;;;;;;;4.10;1.90;;;;;;;;;;5054867;28;20591;-72
2021/07/30 11:49:48;;;;;;;4.03;1.90;;;;;;;;;;5055934;28;20457;-70
2021/07/30 11:52:20;;;;;;;9.53;5.63;;;;;;;;;;5054602;28;20747;-73
2021/07/30 11:54:48;;;;;;;5.07;2.00;;;;;;;;;;5054536;28;20465;-72
2021/07/30 11:57:28;;;;;;;3.70;1.50;;;;;;;;;;5053297;28;20898;-73
2021/07/30 11:59:58;;;;;;;4.37;2.00;;;;;;;;;;5054624;28;20453;-72
2021/07/30 12:02:29;;;;;;;6.90;2.30;;;;;;;;;;5055334;28;20511;-71
2021/07/30 12:04:59;;;;;;;6.17;3.00;;;;;;;;;;5043496;28;20559;-71
2021/07/30 12:07:29;;;;;;;2.83;1.70;;;;;;;;;;5051302;28;20609;-72
2021/07/30 12:09:59;;;;;;;5.77;2.97;;;;;;;;;;5054713;28;20453;-72
2021/07/30 12:12:36;;;;;;;2.80;1.93;;;;;;;;;;5055158;28;20490;-72
2021/07/30 12:15:06;;;;;;;5.30;2.20;;;;;;;;;;5054295;28;20457;-72
2021/07/30 12:17:34;;;;;;;6.10;2.90;;;;;;;;;;5035706;28;20458;-73
2021/07/30 12:20:06;;;;;;;8.77;2.07;;;;;;;;;;5034679;28;20477;-72
2021/07/30 12:22:35;;;;;;;7.33;2.27;;;;;;;;;;5051897;28;20473;-73
2021/07/30 12:25:03;;;;;;;3.10;1.97;;;;;;;;;;5053207;28;20465;-73
2021/07/30 12:27:32;;;;;;;3.23;2.00;;;;;;;;;;5052763;28;20509;-73
2021/07/30 12:30:00;;;;;;;4.70;2.10;;;;;;;;;;5054403;28;20453;-73
2021/07/30 12:32:38;;;;;;;6.07;2.10;;;;;;;;;;5053534;28;20557;-73
2021/07/30 12:35:07;;;;;;;5.33;2.33;;;;;;;;;;5052810;28;20948;-73
2021/07/30 12:37:42;;;;;;;5.57;2.47;;;;;;;;;;5052511;28;20461;-73
2021/07/30 12:40:22;;;;;;;5.90;2.57;;;;;;;;;;5043376;28;20464;-72
2021/07/30 12:42:50;;;;;;;3.70;1.73;;;;;;;;;;5053536;28;21051;-73
2021/07/30 12:45:19;;;;;;;6.10;2.43;;;;;;;;;;5053383;28;20476;-72
2021/07/30 12:48:14;;;;;;;3.70;2.00;;;;;;;;;;5052986;28;20517;-71
2021/07/30 12:50:49;;;;;;;4.67;1.93;;;;;;;;;;5053946;28;20518;-72
2021/07/30 12:53:24;;;;;;;4.67;1.93;;;;;;;;;;5054588;28;20908;-71
2021/07/30 12:56:13;;;;;;;4.77;2.03;;;;;;;;;;5054010;28;20459;-73
2021/07/30 12:58:53;;;;;;;6.50;3.00;;;;;;;;;;5053220;28;20682;-73
2021/07/30 13:01:24;;;;;;;3.40;2.53;;;;;;;;;;5053234;28;20532;-72
2021/07/30 13:04:00;;;;;;;7.80;2.57;;;;;;;;;;5054410;28;20449;-73
2021/07/30 13:06:34;;;;;;;4.40;2.60;;;;;;;;;;5054129;28;20747;-72
2021/07/30 13:09:02;;;;;;;4.10;1.93;;;;;;;;;;5052798;28;21019;-74
2021/07/30 13:11:33;;;;;;;7.73;2.17;;;;;;;;;;5056742;28;20465;-73
2021/07/30 13:14:01;;;;;;;6.07;2.57;;;;;;;;;;5054652;28;20897;-73
2021/07/30 13:16:28;;;;;;;7.20;2.73;;;;;;;;;;5053050;28;20552;-73
2021/07/30 13:18:56;;;;;;;7.23;2.93;;;;;;;;;;5055818;28;20460;-72
2021/07/30 13:21:44;;;;;;;3.73;2.20;;;;;;;;;;5043527;28;20862;-74
2021/07/30 13:24:14;;;;;;;4.80;2.70;;;;;;;;;;5055259;28;20453;-73
2021/07/30 13:26:43;;;;;;;4.40;2.30;;;;;;;;;;5048286;28;20514;-74
2021/07/30 13:29:11;;;;;;;5.97;2.07;;;;;;;;;;5053045;28;20588;-73
2021/07/30 13:31:42;;;;;;;3.73;2.03;;;;;;;;;;5057802;28;20765;-73
2021/07/30 13:37:09;;;;;;;4.00;1.93;;;;;;;;;;5056475;28;20457;-72
2021/07/30 13:39:39;;;;;;;5.40;2.43;;;;;;;;;;5048957;28;20523;-74
2021/07/30 13:42:17;;;;;;;6.20;2.07;;;;;;;;;;5055837;28;20926;-73
2021/07/30 13:44:45;;;;;;;3.70;2.30;;;;;;;;;;5055741;28;20543;-73
2021/07/30 13:47:13;;;;;;;5.63;2.40;;;;;;;;;;5056382;28;20472;-73
2021/07/30 13:49:49;;;;;;;6.63;1.90;;;;;;;;;;5056299;28;20944;-73
2021/07/30 13:52:18;;;;;;;5.60;2.63;;;;;;;;;;5060713;28;20472;-74
2021/07/30 13:54:58;;;;;;;3.83;1.80;;;;;;;;;;5056655;28;20483;-73
2021/07/30 13:57:27;;;;;;;7.00;2.60;;;;;;;;;;5054761;28;20523;-73
2021/07/30 13:59:55;;;;;;;5.60;2.57;;;;;;;;;;5055354;28;20454;-74
2021/07/30 14:02:26;;;;;;;6.20;2.17;;;;;;;;;;5053393;28;20535;-74
2021/07/30 14:04:55;;;;;;;5.10;2.63;;;;;;;;;;5050738;28;20734;-73
2021/07/30 14:07:23;;;;;;;4.73;2.30;;;;;;;;;;5064839;28;20464;-73
2021/07/30 14:09:52;;;;;;;6.23;2.87;;;;;;;;;;5053662;28;20456;-74
2021/07/30 14:12:20;;;;;;;3.77;2.37;;;;;;;;;;5046622;28;20514;-73
2021/07/30 14:14:48;;;;;;;5.97;2.17;;;;;;;;;;5055156;28;20489;-73
2021/07/30 14:17:17;;;;;;;7.70;2.40;;;;;;;;;;5055996;28;20461;-71
2021/07/30 14:19:45;;;;;;;4.97;2.50;;;;;;;;;;5048428;28;20453;-73
2021/07/30 14:22:16;;;;;;;3.40;1.97;;;;;;;;;;5049253;28;20461;-73
2021/07/30 14:24:47;;;;;;;6.83;4.60;;;;;;;;;;5056575;28;20464;-72
2021/07/30 14:27:16;;;;;;;8.53;2.90;;;;;;;;;;5057867;28;20500;-73
2021/07/30 14:29:44;;;;;;;5.10;2.63;;;;;;;;;;5049347;28;20481;-74
2021/07/30 14:32:12;;;;;;;8.40;3.90;;;;;;;;;;5056428;28;20763;-74
2021/07/30 14:34:40;;;;;;;4.60;2.80;;;;;;;;;;5065048;28;20522;-73
2021/07/30 14:37:11;;;;;;;5.87;2.80;;;;;;;;;;5060067;28;20526;-73
2021/07/30 14:39:48;;;;;;;3.60;1.77;;;;;;;;;;5048776;28;20472;-73
2021/07/30 14:42:19;;;;;;;4.83;2.10;;;;;;;;;;5055240;28;20465;-74
2021/07/30 14:44:48;;;;;;;3.90;2.33;;;;;;;;;;5055124;28;20466;-74
2021/07/30 14:47:16;;;;;;;5.03;2.17;;;;;;;;;;5056201;28;20475;-75
2021/07/30 14:49:44;;;;;;;7.50;2.43;;;;;;;;;;5055784;28;20481;-73
2021/07/30 14:52:14;;;;;;;7.97;2.40;;;;;;;;;;5054491;28;20450;-73
2021/07/30 14:54:43;;;;;;;5.20;2.03;;;;;;;;;;5055467;28;20482;-72
2021/07/30 14:57:14;;;;;;;6.50;3.00;;;;;;;;;;5055402;28;20803;-73
2021/07/30 14:59:47;;;;;;;4.47;3.30;;;;;;;;;;5055571;28;20492;-73
2021/07/30 15:02:17;;;;;;;3.23;1.80;;;;;;;;;;5056389;28;20843;-74
2021/07/30 15:04:45;;;;;;;2.90;2.20;;;;;;;;;;5053216;28;20552;-75
2021/07/30 15:07:15;;;;;;;5.00;2.13;;;;;;;;;;5052697;28;21087;-74
2021/07/30 15:09:43;;;;;;;8.63;2.40;;;;;;;;;;5047990;28;20554;-74